Flight Track Log - Related Links

Times and Time Zones

All times are in EDT time to prevent confusion due to time zone crossing. See the CHQ6336 flight status page for this flight to view local times or setup timezone preferences in your user account.

Time Position Orientation Groundspeed Altitude Reporting Facility
EDT Latitude Longitude Course Direction KTS MPH feet Rate Location/Type
Fri 12:17:57 PM 39.3167 -94.7167 96° East 170 196 1,700  Level Kansas TRACON
Fri 12:19:15 PM 39.3833 -94.6500 38° Northeast 243 280 4,600 2,426 Climbing Kansas TRACON
Fri 12:20:13 PM 39.3633 -94.5753 109° East 264 304 7,200 2,579 Climbing Kansas Center
Fri 12:21:00 PM 39.1050 -94.1888 111° Southeast  Level FlightAware
Fri 12:21:16 PM 39.3214 -94.5042 127° Southeast 260 299 9,800  Level Kansas Center
Fri 12:22:00 PM 39.0833 -94.0370 90° East  Level FlightAware
Fri 12:22:17 PM 39.2650 -94.4103 128° Southeast 297 342 11,700  Level Kansas Center
Fri 12:23:00 PM 39.0734 -93.8808 96° East  Level FlightAware
Fri 12:23:21 PM 39.2108 -94.3208 128° Southeast 326 375 13,200  Level Kansas Center
Fri 12:24:21 PM 39.1439 -94.2097 128° Southeast 347 399 15,000 1,887 Climbing Kansas Center
Fri 12:25:25 PM 39.0933 -94.1033 121° Southeast 363 418 17,100 2,032 Climbing Kansas Center
Fri 12:26:25 PM 39.0839 -93.9494 94° East 379 436 19,200 1,694 Climbing Kansas Center
Fri 12:27:29 PM 39.0747 -93.8200 95° East 390 449 20,600 1,548 Climbing Kansas Center
Fri 12:28:29 PM 39.0644 -93.6556 95° East 411 473 22,400 1,548 Climbing Kansas Center
Fri 12:29:33 PM 39.0553 -93.5122 95° East 417 480 23,800 1,500 Climbing Kansas Center
Fri 12:31:37 PM 39.0336 -93.1967 95° East 427 491 27,100 1,459 Climbing Kansas Center
Fri 12:32:38 PM 39.0247 -93.0447 94° East 429 494 28,300 1,113 Climbing Kansas Center
Fri 12:33:41 PM 39.0169 -92.8864 94° East 435 501 29,400 1,161 Climbing Kansas Center
Fri 12:34:42 PM 39.0056 -92.6892 94° East 446 513 30,700 1,248 Climbing Kansas Center
Fri 12:35:46 PM 38.9956 -92.5239 94° East 453 521 32,000 1,344 Climbing Kansas Center
Fri 12:36:47 PM 38.9867 -92.3506 94° East 470 541 33,500 1,377 Climbing Kansas Center
Fri 12:37:48 PM 38.9758 -92.1825 95° East 472 543 34,800 720 Climbing Kansas Center
Fri 12:38:52 PM 38.9656 -92.0122 94° East 472 543 35,000 97 Climbing Kansas Center
Fri 12:39:52 PM 38.9539 -91.8294 95° East 498 573 35,000  Level Kansas Center
Fri 12:40:55 PM 38.9406 -91.6369 95° East 506 582 35,000  Level Kansas Center
Fri 12:41:59 PM 38.9278 -91.4561 95° East 506 582 35,000  Level Kansas Center
Fri 12:43:00 PM 38.8931 -91.2822 104° East 500 575 35,000  Level Kansas Center
Fri 12:44:01 PM 38.8556 -91.1108 106° East 500 575 35,000  Level Kansas Center
Fri 12:45:05 PM 38.8128 -90.9064 105° East 500 575 35,000  Level Kansas Center
Fri 12:46:05 PM 38.7758 -90.7369 106° East 498 573 35,000  Level Kansas Center
Fri 12:47:09 PM 38.7394 -90.5708 106° East 497 572 35,000  Level Kansas Center
Fri 12:48:09 PM 38.7028 -90.4028 106° East 494 568 35,000  Level Kansas Center
Fri 12:49:13 PM 38.6653 -90.2303 106° East 495 570 35,000  Level Kansas Center
Fri 12:50:14 PM 38.6181 -90.0272 107° East 495 570 35,000  Level Kansas Center
Fri 12:51:15 PM 38.5889 -89.8747 104° East 496 571 35,000  Level Kansas Center
Fri 12:52:18 PM 38.5658 -89.7000 100° East 497 572 35,000 -336 Level Kansas Center
Fri 12:53:20 PM 38.5386 -89.4850 99° East 509 586 34,300 -816 Descending Kansas Center
Fri 12:54:23 PM 38.5142 -89.3047 100° East 508 585 33,300 -968 Descending Kansas Center
Fri 12:55:24 PM 38.4903 -89.1356 100° East 491 565 32,300 -968 Descending Kansas Center
Fri 12:56:27 PM 38.4650 -88.9572 100° East 478 550 31,300 -629 Descending Kansas Center
Fri 12:57:28 PM 38.4411 -88.7864 100° East 484 557 31,000 -148 Descending Kansas Center
Fri 12:58:29 PM 38.4175 -88.6197 100° East 488 562 31,000  Level Kansas Center
Fri 12:59:33 PM 38.3919 -88.4406 100° East 508 585 31,000  Level Kansas Center
Fri 01:00:37 PM 38.3633 -88.2214 99° East 518 596 31,000  Level Kansas Center
Fri 01:01:37 PM 38.3625 -88.0375 90° East 517 595 31,000  Level Kansas Center
Fri 01:02:41 PM 38.3839 -87.8556 81° East 518 596 31,000  Level Kansas Center
Fri 01:03:42 PM 38.4022 -87.6747 83° East 516 594 31,000  Level Kansas Center
Fri 01:04:43 PM 38.4200 -87.4933 83° East 514 592 31,000 -205 Level Kansas Center
Fri 01:06:08 PM 38.4447 -87.2403 83° East 512 589 30,500 -1,020 Descending Indianapolis Center
Fri 01:07:10 PM 38.4619 -87.0614 83° East 500 575 28,500 -2,226 Descending Indianapolis Center
Fri 01:08:12 PM 38.4786 -86.8861 83° East 492 566 25,900 -2,468 Descending Indianapolis Center
Fri 01:09:14 PM 38.4936 -86.7175 83° East 479 551 23,400 -2,323 Descending Indianapolis Center
Fri 01:10:16 PM 38.5094 -86.5547 83° East 465 535 21,100 -1,161 Descending Indianapolis Center
Fri 01:11:18 PM 38.5233 -86.3964 84° East 453 521 21,000 -96 Descending Indianapolis Center
Fri 01:12:21 PM 38.5411 -86.1964 83° East 464 534 20,900 -1,104 Descending Indianapolis Center
Fri 01:13:23 PM 38.5561 -86.0297 83° East 471 542 18,700 -2,226 Descending Indianapolis Center
Fri 01:14:25 PM 38.5700 -85.8744 83° East 455 524 16,300 -2,371 Descending Indianapolis Center
Fri 01:15:27 PM 38.5811 -85.7317 84° East 426 490 13,800 -2,274 Descending Indianapolis Center
Fri 01:16:29 PM 38.6042 -85.6053 77° East 379 436 11,600 -1,355 Descending Indianapolis Center
Fri 01:17:31 PM 38.6486 -85.5056 60° Northeast 339 390 11,000 -290 Descending Indianapolis Center
Fri 01:18:33 PM 38.7042 -85.3833 60° Northeast 332 382 11,000  Level Indianapolis Center
Fri 01:19:35 PM 38.7508 -85.2758 61° Northeast 340 391 11,000  Level Indianapolis Center
Fri 01:20:37 PM 38.7981 -85.1656 61° Northeast 349 402 11,000 48 Level Indianapolis Center
Fri 01:21:39 PM 38.8433 -85.0594 61° Northeast 348 400 11,100  Climbing Indianapolis Center
Fri 01:22:41 PM 38.8900 -84.9525 61° Northeast 346 398 11,000 -780 Descending Indianapolis Center
Fri 01:23:42 PM 38.9333 -84.8333 65° Northeast 296 341 9,500 -1,000 Descending Cincinnati TRACON
Fri 01:24:41 PM 39.0000 -84.7833 30° Northeast 259 298 9,000 -706 Descending Cincinnati TRACON
Fri 01:25:41 PM 39.0667 -84.7833 360° North 278 320 8,100 -1,550 Descending Cincinnati TRACON
Fri 01:26:41 PM 39.1500 -84.7667 North 277 319 5,900 -2,281 Descending Cincinnati TRACON
Fri 01:27:42 PM 39.1500 -84.6833 90° East 247 284 3,500 -1,884 Descending Cincinnati TRACON
Fri 01:28:42 PM 39.1167 -84.6500 142° Southeast 135 155 2,100 -1,150 Descending Cincinnati TRACON
Fri 01:29:42 PM 39.0667 -84.6500 180° South 123 142 1,200 -900 Descending Cincinnati TRACON

Login

Don't have an account? Register now (free) for customized features, flight alerts, and more!